Time;durP1;ratioP1;P1;durP2;ratioP2;P2;SDS_P1;SDS_P2;PMS_P1;PMS_P2;Temp;Humidity;BMP_temperature;BMP_pressure;BME280_temperature;BME280_humidity;BME280_pressure;Samples;Min_cycle;Max_cycle;Signal;HPM_P1;HPM_P2
2021/08/01 00:01:03;;;;;;;12.32;7.68;;;;;;;22.36;60.18;98807.81;6288979;22;20507;-79
2021/08/01 00:03:29;;;;;;;12.93;8.20;;;;;;;22.41;60.25;98805.28;6159765;23;20352;-80
2021/08/01 00:05:55;;;;;;;10.98;8.23;;;;;;;22.43;59.86;98798.59;6184254;23;20498;-79
2021/08/01 00:08:23;;;;;;;9.88;7.15;;;;;;;22.46;59.75;98803.63;6184139;23;20042;-79
2021/08/01 00:10:49;;;;;;;13.70;7.15;;;;;;;22.50;59.53;98814.91;6210454;23;20091;-79
2021/08/01 00:13:15;;;;;;;13.20;8.00;;;;;;;22.53;59.74;98815.34;6184074;22;20027;-79
2021/08/01 00:15:41;;;;;;;13.43;8.02;;;;;;;22.50;59.92;98821.19;6134489;23;20444;-80
2021/08/01 00:18:07;;;;;;;13.43;8.05;;;;;;;22.54;60.04;98822.44;6184027;23;20017;-78
2021/08/01 00:20:33;;;;;;;12.02;8.27;;;;;;;22.54;59.86;98822.44;6210650;23;20099;-79
2021/08/01 00:22:59;;;;;;;16.98;8.45;;;;;;;22.58;59.70;98809.25;6159744;23;20021;-79
2021/08/01 00:25:25;;;;;;;16.42;8.43;;;;;;;22.62;59.85;98820.53;6210271;23;20012;-79
2021/08/01 00:27:53;;;;;;;15.68;8.70;;;;;;;22.35;60.38;98826.03;6160088;22;20047;-78
2021/08/01 00:30:19;;;;;;;13.05;8.63;;;;;;;22.36;60.35;98824.16;6212393;23;20024;-78
2021/08/01 00:32:45;;;;;;;25.23;9.23;;;;;;;22.23;60.60;98835.91;6211766;23;20020;-79
2021/08/01 00:35:11;;;;;;;9.57;7.90;;;;;;;22.19;60.73;98834.63;6160733;23;20075;-79
2021/08/01 00:37:37;;;;;;;13.45;7.88;;;;;;;22.29;60.45;98845.94;6184929;23;20397;-80
2021/08/01 00:40:06;;;;;;;17.10;8.65;;;;;;;22.35;60.47;98855.16;6211359;23;20048;-80
2021/08/01 00:42:33;;;;;;;12.35;9.18;;;;;;;22.34;60.78;98854.34;6161337;23;20440;-78
2021/08/01 00:45:00;;;;;;;19.65;9.55;;;;;;;22.36;60.79;98852.22;6162263;23;20081;-79
2021/08/01 00:47:26;;;;;;;15.55;9.20;;;;;;;22.33;60.61;98846.34;6217707;23;20008;-78
2021/08/01 00:49:52;;;;;;;16.63;9.80;;;;;;;22.39;60.58;98851.81;6166982;23;20028;-80
2021/08/01 00:52:18;;;;;;;14.15;9.25;;;;;;;22.39;60.90;98851.81;6188408;23;20024;-80
2021/08/01 00:54:45;;;;;;;17.15;9.43;;;;;;;22.34;60.95;98845.28;6185474;23;20047;-79
2021/08/01 00:57:11;;;;;;;12.75;9.02;;;;;;;22.40;60.82;98852.63;6160368;23;20020;-79
2021/08/01 00:59:40;;;;;;;14.68;9.25;;;;;;;22.42;61.21;98862.28;6185245;23;20065;-79
2021/08/01 01:02:11;;;;;;;18.75;9.75;;;;;;;22.31;60.56;98854.75;6160584;23;20535;-78
2021/08/01 01:05:01;;;;;;;15.07;9.73;;;;;;;22.33;61.11;98851.81;6136427;23;20055;-78
2021/08/01 01:07:34;;;;;;;16.50;10.00;;;;;;;22.21;61.29;98860.59;6160470;23;20020;-79
2021/08/01 01:10:05;;;;;;;15.60;10.38;;;;;;;22.21;61.31;98859.75;6161331;23;20021;-78
2021/08/01 01:12:55;;;;;;;12.07;8.93;;;;;;;22.19;61.48;98870.88;6188674;23;20021;-79
2021/08/01 01:15:23;;;;;;;14.60;9.23;;;;;;;22.18;60.97;98861.00;6160859;23;20055;-78
2021/08/01 01:17:51;;;;;;;15.77;9.18;;;;;;;22.22;61.28;98866.88;6185362;23;20020;-78
2021/08/01 01:20:40;;;;;;;16.40;8.75;;;;;;;22.28;60.90;98860.59;6185611;23;20378;-79
2021/08/01 01:23:34;;;;;;;14.88;8.98;;;;;;;22.31;60.80;98876.53;6136403;23;20051;-79
2021/08/01 01:26:40;;;;;;;17.45;9.27;;;;;;;22.29;60.47;98878.59;6211537;23;20471;-80
2021/08/01 01:29:18;;;;;;;11.90;8.45;;;;;;;22.30;60.44;98874.81;6185801;23;20023;-79
2021/08/01 01:31:47;;;;;;;13.13;9.38;;;;;;;22.34;60.31;98881.56;6137393;23;20509;-78
2021/08/01 01:34:36;;;;;;;11.20;9.13;;;;;;;22.36;60.40;98878.63;6160120;23;20091;-79
2021/08/01 01:37:06;;;;;;;10.55;9.30;;;;;;;22.41;60.19;98876.09;6137535;23;20085;-80
2021/08/01 01:39:37;;;;;;;13.32;9.13;;;;;;;22.50;59.95;98881.13;6160491;23;20021;-78
2021/08/01 01:42:23;;;;;;;19.02;9.02;;;;;;;22.51;59.87;98882.78;6165206;23;20098;-79
2021/08/01 01:44:53;;;;;;;14.43;9.27;;;;;;;22.54;59.89;98887.81;6141250;23;20467;-79
2021/08/01 01:47:20;;;;;;;11.60;9.07;;;;;;;22.50;59.95;98892.00;6135613;23;20016;-80
2021/08/01 01:49:47;;;;;;;16.83;9.40;;;;;;;22.51;59.72;98887.41;6160235;23;20426;-78
2021/08/01 01:52:17;;;;;;;12.55;9.02;;;;;;;22.59;59.67;98894.53;6160978;23;20020;-79
2021/08/01 01:54:52;;;;;;;13.18;8.68;;;;;;;22.55;59.61;98881.31;6185054;23;20122;-79
2021/08/01 01:57:19;;;;;;;12.15;8.50;;;;;;;22.66;59.61;98901.63;6160089;23;20166;-78
2021/08/01 01:59:46;;;;;;;15.45;9.07;;;;;;;22.68;59.48;98898.69;6135434;23;20020;-78
2021/08/01 02:02:14;;;;;;;14.27;8.68;;;;;;;22.70;59.15;98907.50;6160156;23;20028;-78
2021/08/01 02:04:41;;;;;;;14.07;9.13;;;;;;;22.72;59.07;98900.81;6160206;23;20065;-78
2021/08/01 02:07:25;;;;;;;12.15;8.10;;;;;;;22.75;58.94;98902.25;6210847;23;20017;-79
2021/08/01 02:10:18;;;;;;;18.08;8.98;;;;;;;22.80;58.98;98907.91;6162321;23;20024;-78
2021/08/01 02:12:55;;;;;;;14.05;8.65;;;;;;;22.74;59.05;98890.50;6160167;23;20016;-78
2021/08/01 02:15:46;;;;;;;16.23;8.70;;;;;;;22.81;58.83;98901.41;6162617;23;20068;-77
2021/08/01 02:18:23;;;;;;;18.08;8.32;;;;;;;22.83;58.56;98902.03;6114049;23;20374;-79
2021/08/01 02:20:49;;;;;;;15.27;8.90;;;;;;;22.84;58.37;98900.97;6185607;23;20016;-78
2021/08/01 02:23:26;;;;;;;17.67;8.05;;;;;;;22.92;58.43;98902.69;6184821;23;20463;-78
2021/08/01 02:25:53;;;;;;;14.65;9.10;;;;;;;22.99;58.47;98909.78;6185126;23;20127;-77
2021/08/01 02:28:22;;;;;;;14.82;8.73;;;;;;;23.02;58.13;98906.63;6159410;23;20447;-79
2021/08/01 02:30:49;;;;;;;15.93;8.23;;;;;;;23.09;57.89;98912.03;6160143;23;20078;-78
2021/08/01 02:33:16;;;;;;;14.35;8.10;;;;;;;23.15;57.96;98915.81;6184989;23;20028;-79
2021/08/01 02:35:42;;;;;;;9.00;7.97;;;;;;;23.22;57.98;98922.09;6159604;23;20029;-78
2021/08/01 02:38:08;;;;;;;15.07;7.78;;;;;;;23.23;57.38;98926.50;6160312;23;20141;-78
2021/08/01 02:40:36;;;;;;;10.15;7.38;;;;;;;23.29;57.69;98933.81;6160037;23;20031;-79
2021/08/01 02:43:04;;;;;;;14.02;8.27;;;;;;;23.33;57.57;98924.16;6211179;23;20031;-78
2021/08/01 02:45:30;;;;;;;10.70;7.68;;;;;;;23.30;57.47;98924.59;6184670;23;20048;-79
2021/08/01 02:47:56;;;;;;;14.25;8.30;;;;;;;23.45;57.41;98932.50;6135419;23;20095;-77
2021/08/01 02:50:23;;;;;;;14.32;7.97;;;;;;;23.55;56.98;98937.50;6159570;23;20455;-78
2021/08/01 02:52:57;;;;;;;12.10;8.20;;;;;;;23.54;57.05;98935.81;6160090;23;20020;-78
2021/08/01 02:55:28;;;;;;;14.48;7.63;;;;;;;23.62;57.19;98930.09;6160835;22;20021;-77
2021/08/01 02:57:54;;;;;;;12.55;8.00;;;;;;;23.73;57.17;98940.38;6135313;23;20021;-80
2021/08/01 03:00:21;;;;;;;9.63;7.50;;;;;;;23.64;57.32;98936.19;6135556;23;20024;-77
2021/08/01 03:02:48;;;;;;;13.48;7.85;;;;;;;23.63;57.95;98940.00;6185035;23;20031;-78
2021/08/01 03:05:16;;;;;;;14.02;7.43;;;;;;;23.71;57.79;98939.75;6135529;23;20025;-79
2021/08/01 03:07:42;;;;;;;11.48;7.80;;;;;;;23.92;57.49;98944.91;6159713;23;20051;-82
2021/08/01 03:10:09;;;;;;;15.23;7.88;;;;;;;24.07;57.35;98951.94;6135131;23;20017;-79
2021/08/01 03:12:44;;;;;;;13.73;8.77;;;;;;;24.14;57.52;98941.81;6159257;23;20017;-81
2021/08/01 03:15:12;;;;;;;10.63;8.18;;;;;;;24.25;57.10;98943.84;6160425;23;20021;-79
2021/08/01 03:17:38;;;;;;;10.43;7.82;;;;;;;24.39;57.14;98947.34;6159855;23;20150;-80
2021/08/01 03:20:05;;;;;;;15.02;8.10;;;;;;;24.48;56.66;98951.47;6159592;23;20025;-80
2021/08/01 03:22:34;;;;;;;17.08;8.48;;;;;;;24.56;56.50;98958.56;6160322;23;20093;-79
2021/08/01 03:25:01;;;;;;;11.55;8.73;;;;;;;24.68;56.60;98949.44;6184024;23;20355;-79
2021/08/01 03:27:27;;;;;;;13.63;8.23;;;;;;;24.80;56.22;98943.22;6210628;23;20357;-80
2021/08/01 03:29:54;;;;;;;14.88;8.15;;;;;;;24.94;55.81;98948.34;6159806;23;20024;-80
2021/08/01 03:32:20;;;;;;;12.23;7.78;;;;;;;25.06;55.79;98948.44;6184749;23;20028;-79
2021/08/01 03:34:50;;;;;;;14.45;7.55;;;;;;;25.18;55.50;98943.91;6160264;23;20016;-80
2021/08/01 03:37:20;;;;;;;18.95;8.75;;;;;;;25.28;55.32;98954.34;6183906;23;20024;-78
2021/08/01 03:40:05;;;;;;;12.32;8.23;;;;;;;25.37;55.15;98947.50;6167509;23;20048;-80
2021/08/01 03:42:31;;;;;;;16.88;8.60;;;;;;;25.49;55.19;98942.09;6208824;23;20020;-81
2021/08/01 03:44:57;;;;;;;12.70;8.52;;;;;;;25.59;54.72;98947.03;6157039;23;20107;-79
2021/08/01 03:47:23;;;;;;;17.55;9.18;;;;;;;25.65;54.75;98946.09;6214334;23;20016;-78
2021/08/01 03:49:49;;;;;;;11.10;8.13;;;;;;;25.69;54.66;98944.59;6208788;23;20444;-78
2021/08/01 03:52:15;;;;;;;16.02;8.07;;;;;;;25.84;54.32;98947.78;6132884;23;20027;-82
2021/08/01 03:54:41;;;;;;;14.00;8.25;;;;;;;26.02;54.12;98954.28;6157424;23;20025;-77
2021/08/01 03:57:07;;;;;;;12.70;8.38;;;;;;;26.03;54.21;98950.50;6208534;23;20016;-82
2021/08/01 03:59:36;;;;;;;11.55;8.20;;;;;;;26.10;54.47;98949.31;6132727;23;20017;-80
2021/08/01 04:02:03;;;;;;;11.82;8.10;;;;;;;26.24;53.91;98955.41;6208215;22;20033;-85
2021/08/01 04:04:29;;;;;;;9.02;7.40;;;;;;;26.32;54.03;98944.13;6134423;23;20099;-79
2021/08/01 04:06:55;;;;;;;13.65;8.90;;;;;;;26.46;53.86;98955.75;6210140;23;20055;-78
2021/08/01 04:09:21;;;;;;;10.82;7.82;;;;;;;26.54;53.74;98958.13;6134601;23;20047;-79
2021/08/01 04:11:47;;;;;;;20.17;8.00;;;;;;;26.60;53.91;98948.16;6134828;23;20025;-77
2021/08/01 04:14:13;;;;;;;14.13;8.95;;;;;;;26.75;53.79;98956.75;6159620;23;20377;-82
2021/08/01 04:16:39;;;;;;;13.02;7.95;;;;;;;26.81;53.85;98958.53;6134892;23;20016;-81
2021/08/01 04:19:10;;;;;;;12.63;7.75;;;;;;;26.87;53.75;98956.75;6159570;23;20028;-81
2021/08/01 04:21:40;;;;;;;11.25;7.72;;;;;;;26.96;53.58;98957.22;6135077;23;20451;-79
2021/08/01 04:24:06;;;;;;;11.70;7.53;;;;;;;27.11;53.47;98954.88;6183821;23;20392;-80
2021/08/01 04:26:32;;;;;;;12.00;7.28;;;;;;;27.24;53.45;98949.13;6134438;23;20105;-79
2021/08/01 04:28:58;;;;;;;15.70;7.65;;;;;;;27.30;53.37;98959.13;6183328;23;20029;-79
2021/08/01 04:31:24;;;;;;;9.63;7.47;;;;;;;27.42;52.95;98966.50;6183751;23;20440;-78
2021/08/01 04:33:50;;;;;;;11.38;7.22;;;;;;;27.59;52.68;98960.03;6210192;23;20062;-80
2021/08/01 04:36:16;;;;;;;10.88;7.65;;;;;;;27.64;52.92;98958.47;6159062;23;20069;-80
2021/08/01 04:38:42;;;;;;;29.83;8.38;;;;;;;27.78;52.58;98966.22;6158806;23;20021;-79
2021/08/01 04:41:08;;;;;;;9.93;7.13;;;;;;;27.83;52.64;98963.59;6127992;23;1253616;-82
2021/08/01 04:43:34;;;;;;;9.60;7.60;;;;;;;27.79;52.97;98964.31;6155802;23;20355;-80
2021/08/01 04:46:00;;;;;;;14.98;6.72;;;;;;;27.89;52.80;98963.69;6180516;23;20044;-83
2021/08/01 04:48:26;;;;;;;10.50;7.28;;;;;;;28.01;52.29;98961.72;6181910;23;20444;-78
2021/08/01 04:50:52;;;;;;;9.82;6.78;;;;;;;27.92;51.67;98958.53;6180110;23;20017;-80
2021/08/01 04:53:18;;;;;;;9.88;6.47;;;;;;;27.99;51.07;98963.91;6106617;23;20313;-85
2021/08/01 04:55:44;;;;;;;8.00;6.18;;;;;;;28.15;51.00;98971.34;6181442;23;20071;-79
2021/08/01 04:58:09;;;;;;;10.45;7.03;;;;;;;28.15;51.08;98970.50;6180103;23;20059;-80
2021/08/01 05:00:36;;;;;;;7.10;6.32;;;;;;;28.29;50.84;98961.72;6153617;23;20028;-79
2021/08/01 05:03:02;;;;;;;8.43;6.72;;;;;;;28.53;50.00;98964.34;6181839;23;20344;-80
2021/08/01 05:05:34;;;;;;;10.93;6.65;;;;;;;28.54;49.83;98955.84;6180230;23;20029;-81
2021/08/01 05:08:00;;;;;;;10.93;6.38;;;;;;;28.46;49.60;98963.69;6180772;23;20017;-77
2021/08/01 05:10:26;;;;;;;9.60;6.20;;;;;;;28.37;49.94;98974.25;6181278;23;20334;-77
2021/08/01 05:12:52;;;;;;;14.95;7.47;;;;;;;28.42;48.66;98962.50;6181718;23;20021;-79
2021/08/01 05:15:18;;;;;;;9.70;6.43;;;;;;;28.39;47.94;98963.00;6130853;23;20017;-86
2021/08/01 05:17:45;;;;;;;12.77;6.70;;;;;;;28.40;47.78;98975.66;6106584;23;20356;-79
2021/08/01 05:20:11;;;;;;;8.25;6.15;;;;;;;28.43;47.78;98967.75;6181348;23;20025;-80
2021/08/01 05:22:37;;;;;;;9.27;6.30;;;;;;;28.61;47.49;98961.19;6179701;23;20336;-81
2021/08/01 05:25:03;;;;;;;7.82;5.93;;;;;;;28.45;45.74;98968.34;6179825;23;20025;-81
2021/08/01 05:27:29;;;;;;;7.47;6.10;;;;;;;28.41;46.09;98964.44;6179582;23;20021;-77
2021/08/01 05:29:55;;;;;;;8.52;6.20;;;;;;;28.58;45.95;98961.69;6154977;22;20082;-77
2021/08/01 05:32:21;;;;;;;7.95;5.78;;;;;;;28.66;45.08;98964.03;6181482;23;20025;-79
2021/08/01 05:34:47;;;;;;;11.30;6.60;;;;;;;28.53;45.03;98975.34;6180047;23;20028;-76
2021/08/01 05:37:13;;;;;;;6.93;5.88;;;;;;;28.46;44.29;98970.00;6179607;23;20385;-79
2021/08/01 05:39:39;;;;;;;11.60;5.78;;;;;;;28.61;44.67;98976.84;6181704;23;20028;-77
2021/08/01 05:42:05;;;;;;;7.30;5.93;;;;;;;28.61;44.92;98965.84;6155130;23;20052;-76
2021/08/01 05:44:34;;;;;;;7.88;5.75;;;;;;;28.73;44.66;98964.69;6181228;23;20100;-78
2021/08/01 05:47:06;;;;;;;7.88;5.60;;;;;;;29.00;44.32;98966.81;6179774;23;20044;-78
2021/08/01 05:49:33;;;;;;;11.85;5.82;;;;;;;29.02;44.19;98970.13;6133473;23;20028;-77
2021/08/01 05:52:00;;;;;;;7.18;5.40;;;;;;;28.95;44.48;98962.00;6179957;23;20028;-79
2021/08/01 05:54:26;;;;;;;6.50;5.90;;;;;;;28.84;44.81;98964.84;6179851;23;20058;-77
2021/08/01 05:56:52;;;;;;;8.75;5.80;;;;;;;28.92;44.89;98964.41;6181175;23;20017;-77
2021/08/01 05:59:18;;;;;;;9.88;5.65;;;;;;;29.12;44.36;98961.19;6180852;23;20052;-78
2021/08/01 06:01:44;;;;;;;8.05;6.00;;;;;;;29.16;44.00;98965.13;6154990;23;20021;-79
2021/08/01 06:04:10;;;;;;;11.90;5.40;;;;;;;29.21;42.80;98967.94;6179922;23;20032;-78
2021/08/01 06:06:36;;;;;;;8.63;5.32;;;;;;;29.16;42.78;98960.44;6181745;23;20017;-79
2021/08/01 06:09:02;;;;;;;5.80;5.30;;;;;;;29.28;42.82;98961.16;6179823;23;20049;-78
2021/08/01 06:11:28;;;;;;;7.78;4.82;;;;;;;29.61;41.88;98970.44;6154610;23;20338;-79
2021/08/01 06:13:54;;;;;;;4.82;4.43;;;;;;;29.46;40.79;98978.47;6155160;23;20025;-78
2021/08/01 06:16:20;;;;;;;5.93;5.05;;;;;;;29.22;41.57;98962.16;6154536;23;20016;-76
2021/08/01 06:18:46;;;;;;;5.07;4.68;;;;;;;29.42;40.92;98966.31;6181766;23;20021;-78
2021/08/01 06:21:21;;;;;;;7.32;5.05;;;;;;;29.53;41.27;98963.44;6180123;23;20043;-78
2021/08/01 06:23:49;;;;;;;6.28;5.15;;;;;;;29.54;41.12;98969.75;6181430;23;20077;-79
2021/08/01 06:26:15;;;;;;;10.13;4.70;;;;;;;29.67;40.96;98963.06;6154547;23;20040;-80
2021/08/01 06:28:41;;;;;;;7.60;4.60;;;;;;;29.73;40.96;98967.56;6155069;23;20385;-76
2021/08/01 06:31:07;;;;;;;5.65;5.15;;;;;;;29.71;40.33;98964.22;6130559;23;20099;-77
2021/08/01 06:33:33;;;;;;;10.02;4.70;;;;;;;29.77;40.25;98955.75;6130934;23;20104;-78
2021/08/01 06:35:59;;;;;;;6.63;4.80;;;;;;;30.00;40.12;98951.06;6106455;23;20044;-78
2021/08/01 06:38:25;;;;;;;5.20;4.30;;;;;;;30.23;39.42;98949.94;6179552;23;20021;-79
2021/08/01 06:40:51;;;;;;;6.22;5.00;;;;;;;30.42;39.66;98955.91;6130634;23;20040;-77
2021/08/01 06:43:17;;;;;;;7.53;4.60;;;;;;;30.59;39.18;98953.88;6179605;23;20017;-78
2021/08/01 06:45:43;;;;;;;6.72;4.57;;;;;;;30.72;39.46;98947.88;6154386;23;20079;-78
2021/08/01 06:48:09;;;;;;;11.45;4.47;;;;;;;30.80;38.58;98965.09;6180560;23;20020;-78
2021/08/01 06:50:35;;;;;;;7.80;4.20;;;;;;;30.63;37.33;98949.47;6182844;23;20021;-78
2021/08/01 06:53:01;;;;;;;6.13;4.28;;;;;;;30.73;37.29;98949.56;6181824;23;20490;-79
2021/08/01 06:55:27;;;;;;;4.60;4.10;;;;;;;31.15;37.43;98951.56;6155817;23;20021;-79
2021/08/01 06:57:54;;;;;;;4.97;4.40;;;;;;;31.55;36.66;98949.28;6182544;23;20021;-77
2021/08/01 07:00:20;;;;;;;5.68;4.18;;;;;;;31.76;36.59;98951.03;6184301;23;20112;-77
2021/08/01 07:02:55;;;;;;;9.48;4.43;;;;;;;31.82;35.79;98946.34;6180524;23;20096;-78
2021/08/01 07:05:21;;;;;;;7.15;4.03;;;;;;;31.95;34.87;98965.22;6180868;23;20100;-80
2021/08/01 07:07:48;;;;;;;6.20;4.70;;;;;;;31.66;35.91;98951.00;6182579;23;20032;-79
2021/08/01 07:10:14;;;;;;;4.40;4.00;;;;;;;31.50;35.12;98966.69;6155746;23;20025;-79
2021/08/01 07:12:42;;;;;;;6.25;4.15;;;;;;;31.35;35.19;98955.56;6182114;23;20082;-77
2021/08/01 07:15:12;;;;;;;5.78;4.05;;;;;;;31.32;35.33;98967.13;6133625;23;20021;-79
2021/08/01 07:17:39;;;;;;;4.20;3.50;;;;;;;31.19;34.30;98949.09;6131831;23;20055;-77
2021/08/01 07:20:05;;;;;;;7.10;3.70;;;;;;;31.06;33.90;98961.41;6180509;23;20100;-77
2021/08/01 07:22:32;;;;;;;3.78;3.47;;;;;;;31.49;33.85;98945.69;6179282;23;20330;-78
2021/08/01 07:24:58;;;;;;;4.93;3.70;;;;;;;31.81;33.40;98959.34;6178901;23;20017;-78
2021/08/01 07:27:23;;;;;;;6.10;3.75;;;;;;;31.95;33.26;98958.88;6129238;23;20056;-79
2021/08/01 07:29:49;;;;;;;5.82;3.95;;;;;;;31.77;34.06;98957.41;6180409;23;20032;-77
2021/08/01 07:32:15;;;;;;;8.57;4.20;;;;;;;32.08;33.51;98947.28;6178603;22;20024;-78
2021/08/01 07:34:41;;;;;;;4.63;3.95;;;;;;;32.48;32.51;98952.09;6180147;23;20027;-77
2021/08/01 07:37:07;;;;;;;5.80;3.70;;;;;;;32.52;31.50;98968.97;6178215;23;20020;-78
2021/08/01 07:39:33;;;;;;;6.82;4.00;;;;;;;32.04;32.57;98962.75;6179188;23;20561;-77
2021/08/01 07:41:59;;;;;;;11.40;3.63;;;;;;;31.75;32.29;98954.91;6129488;23;20073;-77
2021/08/01 07:44:28;;;;;;;6.80;3.53;;;;;;;31.86;32.69;98947.53;6180573;23;20021;-77
2021/08/01 07:46:54;;;;;;;8.68;3.85;;;;;;;32.21;32.07;98957.84;6178896;23;20021;-77
2021/08/01 07:49:21;;;;;;;5.93;3.88;;;;;;;32.45;31.68;98952.63;6180408;23;20445;-78
2021/08/01 07:51:47;;;;;;;3.60;3.30;;;;;;;32.64;31.23;98950.97;6179248;23;20021;-78
2021/08/01 07:54:13;;;;;;;6.57;3.75;;;;;;;32.20;31.64;98960.84;6180943;23;20244;-79
2021/08/01 07:56:39;;;;;;;5.97;3.70;;;;;;;31.76;32.76;98955.75;6180864;23;20020;-78
2021/08/01 07:59:05;;;;;;;4.13;3.72;;;;;;;31.75;33.04;98952.16;6178872;23;20357;-77
2021/08/01 08:01:31;;;;;;;8.23;3.83;;;;;;;31.92;33.16;98954.72;6180364;23;20052;-78
2021/08/01 08:03:57;;;;;;;6.72;4.07;;;;;;;31.65;34.03;98958.47;6180647;23;20401;-79
2021/08/01 08:06:22;;;;;;;5.97;4.10;;;;;;;31.53;34.49;98974.44;6179997;23;20017;-77
2021/08/01 08:08:48;;;;;;;6.75;3.78;;;;;;;31.58;34.37;98965.34;6180238;23;20025;-79
2021/08/01 08:11:14;;;;;;;7.10;4.07;;;;;;;31.47;34.43;98964.44;6182217;23;20017;-78
2021/08/01 08:13:40;;;;;;;4.57;3.80;;;;;;;31.52;34.41;98961.72;6180118;23;20092;-77
2021/08/01 08:16:06;;;;;;;4.28;3.70;;;;;;;31.81;34.18;98970.41;6180286;23;20024;-78
2021/08/01 08:18:32;;;;;;;4.43;4.03;;;;;;;32.31;32.99;98962.53;6180340;23;20025;-79
2021/08/01 08:20:58;;;;;;;7.53;3.88;;;;;;;32.10;32.84;98951.44;6179965;23;20021;-77
2021/08/01 08:23:24;;;;;;;4.05;3.75;;;;;;;32.23;32.81;98954.78;6180482;23;20051;-79
2021/08/01 08:25:50;;;;;;;4.35;3.70;;;;;;;32.22;32.50;98981.63;6178831;23;20031;-79
2021/08/01 08:28:16;;;;;;;4.05;3.75;;;;;;;32.30;32.17;98961.72;6179975;23;20406;-79
2021/08/01 08:30:42;;;;;;;4.38;3.70;;;;;;;32.58;32.20;98938.25;6153859;23;20150;-76
2021/08/01 08:33:10;;;;;;;6.05;3.97;;;;;;;32.44;32.63;98950.97;6179958;23;20151;-80
2021/08/01 08:35:36;;;;;;;;;;;;;;;32.30;31.90;98966.41;6179056;23;20021;-79
2021/08/01 08:38:02;;;;;;;6.32;3.85;;;;;;;32.23;31.89;98954.78;6153814;23;19915;-77
2021/08/01 08:40:28;;;;;;;4.40;3.92;;;;;;;32.10;30.97;98945.91;6178384;23;20028;-78
2021/08/01 08:42:57;;;;;;;4.65;3.35;;;;;;;31.84;32.48;98957.97;6154649;23;20028;-82
2021/08/01 08:45:24;;;;;;;7.80;4.28;;;;;;;32.11;32.68;98963.34;6155042;23;20396;-79
2021/08/01 08:47:50;;;;;;;4.82;3.72;;;;;;;32.17;32.81;98968.59;6105635;23;20088;-83
2021/08/01 08:50:24;;;;;;;4.72;3.78;;;;;;;32.31;32.50;98937.63;6131099;23;20101;-81
2021/08/01 08:53:01;;;;;;;5.70;3.90;;;;;;;32.40;31.80;98939.63;6155724;23;20028;-82
2021/08/01 08:55:28;;;;;;;7.70;3.75;;;;;;;32.86;31.21;98949.88;6157265;23;20464;-79
2021/08/01 08:58:00;;;;;;;7.13;3.67;;;;;;;32.92;31.06;98934.91;6180538;23;20025;-78
2021/08/01 09:00:27;;;;;;;3.80;3.40;;;;;;;33.09;31.13;98943.75;6133395;23;20049;-79
2021/08/01 09:02:53;;;;;;;8.60;3.60;;;;;;;33.48;30.47;98965.31;6157003;23;20025;-78
2021/08/01 09:05:19;;;;;;;6.80;3.35;;;;;;;32.98;29.82;98946.84;6286036;22;20029;-80
2021/08/01 09:07:45;;;;;;;5.90;3.30;;;;;;;32.77;30.49;98955.13;6181124;23;20074;-79
2021/08/01 09:10:11;;;;;;;8.27;3.60;;;;;;;32.61;30.87;98934.94;6285976;22;20025;-79
2021/08/01 09:12:40;;;;;;;6.32;3.65;;;;;;;32.17;32.03;98932.66;6132154;23;20108;-80
2021/08/01 09:15:20;;;;;;;6.65;3.90;;;;;;;31.91;32.35;98953.88;6180189;23;20017;-80
2021/08/01 09:17:55;;;;;;;3.95;3.50;;;;;;;32.16;32.23;98955.06;6228661;23;20028;-81
2021/08/01 09:20:32;;;;;;;8.00;3.80;;;;;;;32.61;31.19;98948.78;6155625;23;20419;-79
2021/08/01 09:22:59;;;;;;;;;;;;;;;32.70;31.16;98951.00;6180528;23;20028;-79
2021/08/01 09:25:36;;;;;;;5.22;3.50;;;;;;;32.63;31.32;98926.34;6155849;23;19912;-78
2021/08/01 09:28:13;;;;;;;9.75;3.78;;;;;;;32.44;31.32;98939.91;6157632;23;20033;-79
2021/08/01 09:30:53;;;;;;;7.63;3.90;;;;;;;32.94;30.78;98924.41;6132596;23;20020;-81
2021/08/01 09:33:38;;;;;;;5.60;3.63;;;;;;;33.19;29.52;98933.78;6155916;23;20017;-78
2021/08/01 09:36:14;;;;;;;4.50;3.53;;;;;;;33.35;28.96;98938.16;6155194;23;20020;-78
2021/08/01 09:39:00;;;;;;;7.93;3.60;;;;;;;33.01;29.54;98924.94;6156758;23;20017;-80
2021/08/01 09:41:36;;;;;;;9.02;3.40;;;;;;;33.32;29.54;98931.22;6130836;23;20017;-80
2021/08/01 09:44:04;;;;;;;3.90;3.40;;;;;;;33.68;29.06;98935.84;6155367;23;20021;-79
2021/08/01 09:46:40;;;;;;;5.55;3.80;;;;;;;33.69;29.00;98946.66;6179718;23;20079;-79
2021/08/01 09:49:19;;;;;;;9.05;3.55;;;;;;;33.85;28.27;98930.75;6130349;23;20023;-79
2021/08/01 09:51:48;;;;;;;8.65;3.40;;;;;;;33.97;28.30;98936.81;6107835;23;20308;-79
2021/08/01 09:54:15;;;;;;;4.07;3.20;;;;;;;34.52;27.52;98940.38;6154637;23;20017;-78
2021/08/01 09:56:55;;;;;;;7.20;3.25;;;;;;;34.93;26.49;98939.19;6155205;23;20044;-80
2021/08/01 09:59:26;;;;;;;3.90;3.38;;;;;;;33.87;27.41;98961.81;6130748;23;20040;-80
2021/08/01 10:01:59;;;;;;;10.13;3.10;;;;;;;33.44;28.32;98933.72;6155345;23;20028;-78
2021/08/01 10:04:28;;;;;;;5.07;3.28;;;;;;;33.19;28.75;98939.31;6156020;23;20021;-80
2021/08/01 10:07:02;;;;;;;4.35;3.03;;;;;;;33.12;28.26;98962.59;6155094;23;20017;-81
2021/08/01 10:09:29;;;;;;;3.92;3.40;;;;;;;32.99;28.50;98935.50;6133426;23;20039;-79
2021/08/01 10:11:55;;;;;;;6.80;3.58;;;;;;;33.98;27.19;98930.19;6155325;23;20017;-78
2021/08/01 10:14:22;;;;;;;5.85;3.20;;;;;;;34.48;26.44;98930.94;6131099;23;20044;-80
2021/08/01 10:16:49;;;;;;;9.50;3.10;;;;;;;34.61;26.44;98942.53;6155067;23;20385;-80
2021/08/01 10:19:15;;;;;;;6.05;3.33;;;;;;;34.99;26.22;98944.44;6181363;23;20017;-80
2021/08/01 10:21:44;;;;;;;14.75;3.60;;;;;;;34.49;26.30;98931.75;6154610;23;20017;-81
2021/08/01 10:24:23;;;;;;;5.78;3.50;;;;;;;34.23;26.66;98931.16;6179471;23;20021;-80
2021/08/01 10:26:51;;;;;;;8.10;3.42;;;;;;;34.44;26.38;98932.63;6131179;23;20021;-80
2021/08/01 10:29:45;;;;;;;5.05;3.20;;;;;;;35.25;25.75;98933.06;6130990;23;20021;-82
2021/08/01 10:32:12;;;;;;;6.15;2.90;;;;;;;35.32;25.04;98936.31;6179948;23;20024;-79
2021/08/01 10:34:46;;;;;;;6.32;3.65;;;;;;;35.61;24.66;98932.66;6155522;23;20017;-80
2021/08/01 10:37:26;;;;;;;7.32;2.90;;;;;;;36.13;24.00;98939.22;6181786;23;20487;-78
2021/08/01 10:39:55;;;;;;;8.25;3.10;;;;;;;36.51;23.76;98940.03;6155044;23;20028;-78
2021/08/01 10:42:23;;;;;;;3.13;2.75;;;;;;;35.78;23.78;98943.28;6179010;23;20025;-79
2021/08/01 10:44:50;;;;;;;10.60;3.30;;;;;;;35.58;23.91;98922.94;6180987;23;20028;-79
2021/08/01 10:47:15;;;;;;;7.40;3.10;;;;;;;35.93;23.77;98932.78;6154650;23;20409;-78
2021/08/01 10:49:43;;;;;;;4.57;3.13;;;;;;;36.57;23.10;98938.81;6154808;23;20025;-78
2021/08/01 10:52:10;;;;;;;4.72;3.30;;;;;;;36.78;22.55;98939.28;6154545;23;20342;-78
2021/08/01 10:54:49;;;;;;;6.65;4.15;;;;;;;36.91;22.98;98934.91;6130777;23;20046;-78
2021/08/01 10:57:19;;;;;;;6.60;3.92;;;;;;;38.08;20.91;98940.13;6133255;23;20021;-79
2021/08/01 10:59:56;;;;;;;6.60;3.85;;;;;;;38.23;21.25;98925.81;6179557;23;20021;-81
2021/08/01 11:02:32;;;;;;;6.50;4.03;;;;;;;38.44;20.64;98926.19;6179729;23;20021;-79
2021/08/01 11:05:40;;;;;;;5.32;4.00;;;;;;;37.54;21.36;98941.81;6130722;23;20032;-79
2021/08/01 11:08:08;;;;;;;6.57;4.80;;;;;;;37.54;21.21;98936.22;6164784;23;20120;-80
2021/08/01 11:10:34;;;;;;;8.10;3.00;;;;;;;37.75;20.94;98929.09;6182691;23;20099;-80
2021/08/01 11:13:04;;;;;;;3.47;2.70;;;;;;;38.27;20.02;98945.56;6146961;23;20535;-79
2021/08/01 11:15:46;;;;;;;5.28;2.83;;;;;;;37.28;20.99;98936.75;6108289;23;20073;-79
2021/08/01 11:18:31;;;;;;;9.77;2.95;;;;;;;37.29;21.74;98954.28;6155041;23;20475;-79
2021/08/01 11:21:03;;;;;;;5.55;2.63;;;;;;;37.58;21.17;98931.72;6088630;23;20340;-78
2021/08/01 11:23:56;;;;;;;8.98;3.15;;;;;;;37.29;20.72;98946.75;6109096;23;20021;-78
2021/08/01 11:26:28;;;;;;;;;;;;;;;37.78;20.17;98938.81;6156369;23;20023;-77
2021/08/01 11:29:08;;;;;;;6.47;2.90;;;;;;;37.67;19.46;98939.03;6179528;23;19939;-78
2021/08/01 11:31:38;;;;;;;3.72;2.60;;;;;;;37.64;20.28;98930.44;6085500;23;20025;-82
2021/08/01 11:34:21;;;;;;;4.13;2.97;;;;;;;36.65;20.59;98940.09;6129943;23;20124;-78
2021/08/01 11:36:47;;;;;;;5.78;2.50;;;;;;;35.57;21.50;98948.28;6181142;23;20448;-78
2021/08/01 11:39:14;;;;;;;8.88;2.70;;;;;;;36.85;20.63;98938.91;6130527;23;20468;-78